Adams, NE (68301)

9:35 PM CDT on August 29, 2016 (GMT -0500)
Woodland Plaza | | Change Station
Active Advisory: Flash Flood Watch

Elev 1283 ft 40.63 °N, 96.63 °W | Updated 4 minutes ago

Scattered Clouds
Scattered Clouds
70.7 °F
Feels Like 70.7 °F
N
5.3
Wind Variable Wind from NE

Today
High -- | Low -- °F
--% Chance of Precip.
Yesterday
High -- | Low -- °F
Precip. -- in
Pressure 30.19 in
Visibility 10.0 miles
Clouds Scattered Clouds 9000 ft
Dew Point 69 °F
Humidity 93%
Rainfall 0.23 in
Snow Depth Not available.
6:50 AM 8:01 PM
Waning Crescent, 6% visible
METAR KBIE 300215Z AUTO 35003KT 10SM SCT090 21/20 A3019 RMK AO2 LTG DSNT SE T02060200
Pressure 30.19 in
Visibility 10.0 miles
Clouds Scattered Clouds 9000 ft
Dew Point 69 °F
Humidity 93%
Rainfall 0.23 in
Snow Depth Not available.
6:50 AM 8:01 PM
Waning Crescent, 6% visible
METAR KBIE 300215Z AUTO 35003KT 10SM SCT090 21/20 A3019 RMK AO2 LTG DSNT SE T02060200

10-Day Weather Forecast

Almanac

Astronomy

Aug. 29, 2016 Rise Set
Actual Time
Civil Twilight
Nautical Twilight
Astronomical Twilight
Moon
Length of Visible Light
Length of Day
Tomorrow will be .
, % of the Moon is Illuminated

Today's Extremes

State Highs State Lows

Community

WunderPhotos

Upload Photos

1,935,737 photos uploaded!

WunderBlog® & News

Nearby

Air Quality

  Air Quality AQ Index Pollutant
Not available.

Snow Depth

Station Depth Elevation

Earthquake Activity

City Distance Mag. Time & Date
Minimum magnitude displayed is 2.5.

Coastal Water Temperatures

Place Temperature

Stations

Nearby Weather Stations

Station Location Temp. Windchill Dew Point Humidity Wind Precip. Elev Updated Type
                   

Watches & Warnings

Flash Flood Watch
Issued: 2:39 PM CDT Aug. 29, 2016 – National Weather Service

... Flash Flood Watch in effect through Tuesday afternoon...

The National Weather Service in Omaha/valley has issued a

* Flash Flood Watch for portions of southwest Iowa and southeast
Nebraska... including the following areas... in southwest Iowa...
   Fremont and Page. In southeast Nebraska... gage... Jefferson...
Johnson... Nemaha... Otoe... Pawnee... Richardson and Saline.

* Through Tuesday afternoon

* heavy rain from 1 to 5 inches fell across parts of the area last
night. Additional heavy rain with slow moving thunderstorms are
possible in the same areas tonight and Tuesday.

* Very heavy rainfall rates of 1 to 2 inches per hour will be
possible with thunderstorms that may only be moving 10 mph at
times. Flooding of low lying areas could occur... along with
ponding of water on roadways. Flash flooding may occur along
small streams and creeks.

Precautionary/preparedness actions...

A Flash Flood Watch means that conditions may develop that lead
to flash flooding. Flash flooding is a very dangerous situation.

You should monitor later forecasts and be prepared to take action
should flash flood warnings be issued.



Dewald